Terminal Aerodrome Forecast
Issued by NWS

Current Version | Previous Version | Text Only | Print | Product List | Glossary Off
Versions: 1 2 3 4 5 6 7 8 9 10 11 12 13 14 15 16 17 18 19

652
FTUS41 KILN 182337
TAFLUK
TAF
KLUK 182337Z 1900/1924 VRB05KT P6SM VCSH OVC060
      TEMPO 1900/1901 29018G25KT 5SM SHRA BKN030 OVC050
     FM190100 27016G27KT P6SM OVC070
      TEMPO 1902/1905 SKC
     FM190500 27014G22KT P6SM OVC030
      TEMPO 1905/1907 OVC045
     FM190900 29012G18KT P6SM OVC018
      TEMPO 1911/1913 -RA
     FM191400 33011KT P6SM BKN020
     FM191900 32012G20KT P6SM SCT025 BKN045=

USA.gov is the U.S. government's official web portal to all federal, state and local government web resources and services.